sensor_id;sensor_type;location;lat;lon;timestamp;temperature;humidity
71177;DHT22;58877;51.992;4.504;2022-12-07T00:01:16;6.08;87.84
71177;DHT22;58877;51.992;4.504;2022-12-07T00:03:45;6.24;87.40
71177;DHT22;58877;51.992;4.504;2022-12-07T00:06:13;6.08;87.44
71177;DHT22;58877;51.992;4.504;2022-12-07T00:08:40;6.11;87.62
71177;DHT22;58877;51.992;4.504;2022-12-07T00:11:10;6.24;87.08
71177;DHT22;58877;51.992;4.504;2022-12-07T00:13:38;6.33;86.76
71177;DHT22;58877;51.992;4.504;2022-12-07T00:18:32;6.41;86.14
71177;DHT22;58877;51.992;4.504;2022-12-07T00:21:06;6.42;85.51
71177;DHT22;58877;51.992;4.504;2022-12-07T00:23:33;6.49;84.70
71177;DHT22;58877;51.992;4.504;2022-12-07T00:26:07;6.33;84.24
71177;DHT22;58877;51.992;4.504;2022-12-07T00:28:33;6.20;83.91
71177;DHT22;58877;51.992;4.504;2022-12-07T00:31:07;6.17;84.26
71177;DHT22;58877;51.992;4.504;2022-12-07T00:33:34;6.18;84.03
71177;DHT22;58877;51.992;4.504;2022-12-07T00:36:02;6.04;83.68
71177;DHT22;58877;51.992;4.504;2022-12-07T00:38:30;6.00;83.61
71177;DHT22;58877;51.992;4.504;2022-12-07T00:40:58;5.84;83.38
71177;DHT22;58877;51.992;4.504;2022-12-07T00:43:25;5.70;83.40
71177;DHT22;58877;51.992;4.504;2022-12-07T00:45:50;5.60;83.25
71177;DHT22;58877;51.992;4.504;2022-12-07T00:48:16;5.53;83.14
71177;DHT22;58877;51.992;4.504;2022-12-07T00:50:42;5.40;83.23
71177;DHT22;58877;51.992;4.504;2022-12-07T00:53:08;5.48;83.54
71177;DHT22;58877;51.992;4.504;2022-12-07T00:55:35;5.58;83.34
71177;DHT22;58877;51.992;4.504;2022-12-07T00:58:00;5.81;83.58
71177;DHT22;58877;51.992;4.504;2022-12-07T01:00:26;5.71;83.76
71177;DHT22;58877;51.992;4.504;2022-12-07T01:02:52;5.66;83.71
71177;DHT22;58877;51.992;4.504;2022-12-07T01:05:18;5.50;83.92
71177;DHT22;58877;51.992;4.504;2022-12-07T01:07:44;5.46;84.05
71177;DHT22;58877;51.992;4.504;2022-12-07T01:10:10;5.35;84.16
71177;DHT22;58877;51.992;4.504;2022-12-07T01:12:35;5.42;84.42
71177;DHT22;58877;51.992;4.504;2022-12-07T01:15:01;5.44;84.97
71177;DHT22;58877;51.992;4.504;2022-12-07T01:17:29;5.53;85.03
71177;DHT22;58877;51.992;4.504;2022-12-07T01:19:54;5.53;84.72
71177;DHT22;58877;51.992;4.504;2022-12-07T01:22:26;5.57;84.79
71177;DHT22;58877;51.992;4.504;2022-12-07T01:25:10;5.83;83.69
71177;DHT22;58877;51.992;4.504;2022-12-07T01:27:48;5.78;83.61
71177;DHT22;58877;51.992;4.504;2022-12-07T01:30:14;5.68;83.75
71177;DHT22;58877;51.992;4.504;2022-12-07T01:32:39;5.57;83.75
71177;DHT22;58877;51.992;4.504;2022-12-07T01:35:05;5.47;83.35
71177;DHT22;58877;51.992;4.504;2022-12-07T01:37:38;5.25;83.02
71177;DHT22;58877;51.992;4.504;2022-12-07T01:40:05;4.97;82.95
71177;DHT22;58877;51.992;4.504;2022-12-07T01:42:31;4.97;83.44
71177;DHT22;58877;51.992;4.504;2022-12-07T01:45:31;4.86;83.43
71177;DHT22;58877;51.992;4.504;2022-12-07T01:48:01;4.85;83.74
71177;DHT22;58877;51.992;4.504;2022-12-07T01:50:29;4.97;84.20
71177;DHT22;58877;51.992;4.504;2022-12-07T01:52:59;5.13;84.46
71177;DHT22;58877;51.992;4.504;2022-12-07T01:55:27;5.18;85.61
71177;DHT22;58877;51.992;4.504;2022-12-07T01:57:54;5.29;85.85
71177;DHT22;58877;51.992;4.504;2022-12-07T02:00:20;5.58;85.31
71177;DHT22;58877;51.992;4.504;2022-12-07T02:02:53;5.67;84.79
71177;DHT22;58877;51.992;4.504;2022-12-07T02:05:19;5.77;84.80
71177;DHT22;58877;51.992;4.504;2022-12-07T02:07:47;5.86;84.24
71177;DHT22;58877;51.992;4.504;2022-12-07T02:10:27;6.08;82.68
71177;DHT22;58877;51.992;4.504;2022-12-07T02:32:14;5.15;83.34
71177;DHT22;58877;51.992;4.504;2022-12-07T02:40:34;5.29;82.88
71177;DHT22;58877;51.992;4.504;2022-12-07T02:43:27;5.08;83.50
71177;DHT22;58877;51.992;4.504;2022-12-07T02:46:22;5.09;83.85
71177;DHT22;58877;51.992;4.504;2022-12-07T02:48:47;5.15;84.20
71177;DHT22;58877;51.992;4.504;2022-12-07T02:51:39;5.25;84.07
71177;DHT22;58877;51.992;4.504;2022-12-07T02:54:12;5.25;84.17
71177;DHT22;58877;51.992;4.504;2022-12-07T02:56:48;5.42;84.72
71177;DHT22;58877;51.992;4.504;2022-12-07T03:02:39;5.61;84.74
71177;DHT22;58877;51.992;4.504;2022-12-07T03:16:17;5.86;83.75
71177;DHT22;58877;51.992;4.504;2022-12-07T03:19:00;5.91;83.75
71177;DHT22;58877;51.992;4.504;2022-12-07T03:21:51;5.94;83.58
71177;DHT22;58877;51.992;4.504;2022-12-07T03:24:24;5.95;83.77
71177;DHT22;58877;51.992;4.504;2022-12-07T03:26:59;5.93;83.81
71177;DHT22;58877;51.992;4.504;2022-12-07T03:29:36;5.91;83.98
71177;DHT22;58877;51.992;4.504;2022-12-07T03:32:14;5.90;83.29
71177;DHT22;58877;51.992;4.504;2022-12-07T03:35:03;5.90;83.30
71177;DHT22;58877;51.992;4.504;2022-12-07T03:40:38;6.10;82.24
71177;DHT22;58877;51.992;4.504;2022-12-07T03:43:07;6.14;82.03
71177;DHT22;58877;51.992;4.504;2022-12-07T03:45:42;6.22;81.65
71177;DHT22;58877;51.992;4.504;2022-12-07T03:50:57;6.29;81.17
71177;DHT22;58877;51.992;4.504;2022-12-07T03:53:39;6.38;80.96
71177;DHT22;58877;51.992;4.504;2022-12-07T03:56:08;6.46;80.36
71177;DHT22;58877;51.992;4.504;2022-12-07T03:58:36;6.56;79.79
71177;DHT22;58877;51.992;4.504;2022-12-07T04:01:02;6.53;79.58
71177;DHT22;58877;51.992;4.504;2022-12-07T04:03:29;6.45;80.03
71177;DHT22;58877;51.992;4.504;2022-12-07T04:05:55;6.29;80.44
71177;DHT22;58877;51.992;4.504;2022-12-07T04:08:21;6.21;80.74
71177;DHT22;58877;51.992;4.504;2022-12-07T04:10:47;6.14;81.04
71177;DHT22;58877;51.992;4.504;2022-12-07T04:13:13;6.02;81.38
71177;DHT22;58877;51.992;4.504;2022-12-07T04:15:38;5.95;81.74
71177;DHT22;58877;51.992;4.504;2022-12-07T04:18:04;6.01;81.57
71177;DHT22;58877;51.992;4.504;2022-12-07T04:20:30;5.93;81.48
71177;DHT22;58877;51.992;4.504;2022-12-07T04:22:55;5.87;81.72
71177;DHT22;58877;51.992;4.504;2022-12-07T04:25:21;5.78;81.93
71177;DHT22;58877;51.992;4.504;2022-12-07T04:27:47;5.84;82.06
71177;DHT22;58877;51.992;4.504;2022-12-07T04:30:13;5.94;81.19
71177;DHT22;58877;51.992;4.504;2022-12-07T04:32:39;5.87;81.36
71177;DHT22;58877;51.992;4.504;2022-12-07T04:35:06;5.91;81.39
71177;DHT22;58877;51.992;4.504;2022-12-07T04:37:32;5.87;81.50
71177;DHT22;58877;51.992;4.504;2022-12-07T04:39:58;5.84;81.74
71177;DHT22;58877;51.992;4.504;2022-12-07T04:42:24;5.84;81.91
71177;DHT22;58877;51.992;4.504;2022-12-07T04:44:51;5.77;81.85
71177;DHT22;58877;51.992;4.504;2022-12-07T04:47:16;5.75;81.97
71177;DHT22;58877;51.992;4.504;2022-12-07T04:49:42;5.84;81.61
71177;DHT22;58877;51.992;4.504;2022-12-07T04:52:08;5.75;81.63
71177;DHT22;58877;51.992;4.504;2022-12-07T04:54:34;5.70;81.81
71177;DHT22;58877;51.992;4.504;2022-12-07T04:57:00;5.54;81.32
71177;DHT22;58877;51.992;4.504;2022-12-07T04:59:26;5.36;81.01
71177;DHT22;58877;51.992;4.504;2022-12-07T05:01:51;5.16;81.27
71177;DHT22;58877;51.992;4.504;2022-12-07T05:04:17;5.08;81.43
71177;DHT22;58877;51.992;4.504;2022-12-07T05:06:44;4.99;81.88
71177;DHT22;58877;51.992;4.504;2022-12-07T05:09:10;4.85;82.11
71177;DHT22;58877;51.992;4.504;2022-12-07T05:11:35;4.79;82.60
71177;DHT22;58877;51.992;4.504;2022-12-07T05:14:16;4.89;82.71
71177;DHT22;58877;51.992;4.504;2022-12-07T05:16:44;4.79;83.20
71177;DHT22;58877;51.992;4.504;2022-12-07T05:19:15;5.02;83.13
71177;DHT22;58877;51.992;4.504;2022-12-07T05:21:41;5.19;82.02
71177;DHT22;58877;51.992;4.504;2022-12-07T05:24:11;5.00;82.65
71177;DHT22;58877;51.992;4.504;2022-12-07T05:26:38;4.97;82.96
71177;DHT22;58877;51.992;4.504;2022-12-07T05:29:04;4.99;82.65
71177;DHT22;58877;51.992;4.504;2022-12-07T05:31:31;4.85;82.97
71177;DHT22;58877;51.992;4.504;2022-12-07T05:33:57;4.79;83.34
71177;DHT22;58877;51.992;4.504;2022-12-07T05:36:24;4.82;83.23
71177;DHT22;58877;51.992;4.504;2022-12-07T05:38:50;4.73;83.05
71177;DHT22;58877;51.992;4.504;2022-12-07T05:41:22;4.55;82.84
71177;DHT22;58877;51.992;4.504;2022-12-07T05:44:06;4.68;83.17
71177;DHT22;58877;51.992;4.504;2022-12-07T05:46:33;4.59;82.81
71177;DHT22;58877;51.992;4.504;2022-12-07T05:49:02;4.47;82.83
71177;DHT22;58877;51.992;4.504;2022-12-07T05:51:28;4.41;83.06
71177;DHT22;58877;51.992;4.504;2022-12-07T05:54:01;4.51;83.12
71177;DHT22;58877;51.992;4.504;2022-12-07T05:56:27;4.45;82.95
71177;DHT22;58877;51.992;4.504;2022-12-07T05:58:53;4.49;83.24
71177;DHT22;58877;51.992;4.504;2022-12-07T06:01:37;4.47;83.32
71177;DHT22;58877;51.992;4.504;2022-12-07T06:04:03;4.52;83.80
71177;DHT22;58877;51.992;4.504;2022-12-07T06:06:30;4.51;83.82
71177;DHT22;58877;51.992;4.504;2022-12-07T06:08:56;4.41;83.94
71177;DHT22;58877;51.992;4.504;2022-12-07T06:11:22;4.41;84.21
71177;DHT22;58877;51.992;4.504;2022-12-07T06:14:06;4.30;84.29
71177;DHT22;58877;51.992;4.504;2022-12-07T06:16:32;4.25;84.87
71177;DHT22;58877;51.992;4.504;2022-12-07T06:18:58;4.28;84.74
71177;DHT22;58877;51.992;4.504;2022-12-07T06:21:24;4.18;84.44
71177;DHT22;58877;51.992;4.504;2022-12-07T06:23:52;4.13;84.62
71177;DHT22;58877;51.992;4.504;2022-12-07T06:26:17;4.16;84.64
71177;DHT22;58877;51.992;4.504;2022-12-07T06:28:46;4.18;84.56
71177;DHT22;58877;51.992;4.504;2022-12-07T06:31:11;4.16;84.36
71177;DHT22;58877;51.992;4.504;2022-12-07T06:33:37;4.01;84.17
71177;DHT22;58877;51.992;4.504;2022-12-07T06:36:03;4.03;84.31
71177;DHT22;58877;51.992;4.504;2022-12-07T06:38:29;4.03;84.37
71177;DHT22;58877;51.992;4.504;2022-12-07T06:40:55;4.08;84.27
71177;DHT22;58877;51.992;4.504;2022-12-07T06:43:20;4.03;83.94
71177;DHT22;58877;51.992;4.504;2022-12-07T06:45:46;4.10;84.15
71177;DHT22;58877;51.992;4.504;2022-12-07T06:48:11;4.20;84.14
71177;DHT22;58877;51.992;4.504;2022-12-07T06:50:37;4.38;84.01
71177;DHT22;58877;51.992;4.504;2022-12-07T06:53:02;4.28;84.34
71177;DHT22;58877;51.992;4.504;2022-12-07T06:55:29;4.16;84.63
71177;DHT22;58877;51.992;4.504;2022-12-07T06:57:55;4.27;85.51
71177;DHT22;58877;51.992;4.504;2022-12-07T07:00:21;4.45;85.43
71177;DHT22;58877;51.992;4.504;2022-12-07T07:02:46;4.48;85.30
71177;DHT22;58877;51.992;4.504;2022-12-07T07:05:12;4.48;84.90
71177;DHT22;58877;51.992;4.504;2022-12-07T07:07:37;4.45;84.42
71177;DHT22;58877;51.992;4.504;2022-12-07T07:10:04;4.42;84.47
71177;DHT22;58877;51.992;4.504;2022-12-07T07:12:30;4.55;84.51
71177;DHT22;58877;51.992;4.504;2022-12-07T07:14:56;4.71;83.60
71177;DHT22;58877;51.992;4.504;2022-12-07T07:17:21;4.82;83.06
71177;DHT22;58877;51.992;4.504;2022-12-07T07:19:47;4.62;83.46
71177;DHT22;58877;51.992;4.504;2022-12-07T07:22:14;4.38;83.27
71177;DHT22;58877;51.992;4.504;2022-12-07T07:24:40;4.45;83.61
71177;DHT22;58877;51.992;4.504;2022-12-07T07:27:06;4.36;83.56
71177;DHT22;58877;51.992;4.504;2022-12-07T07:29:32;4.40;83.57
71177;DHT22;58877;51.992;4.504;2022-12-07T07:32:00;4.52;83.95
71177;DHT22;58877;51.992;4.504;2022-12-07T07:34:26;4.61;83.69
71177;DHT22;58877;51.992;4.504;2022-12-07T07:36:52;4.55;83.61
71177;DHT22;58877;51.992;4.504;2022-12-07T07:39:18;4.37;83.77
71177;DHT22;58877;51.992;4.504;2022-12-07T07:41:44;4.48;84.46
71177;DHT22;58877;51.992;4.504;2022-12-07T07:44:10;4.47;84.17
71177;DHT22;58877;51.992;4.504;2022-12-07T07:46:35;4.48;84.42
71177;DHT22;58877;51.992;4.504;2022-12-07T07:49:03;4.58;84.34
71177;DHT22;58877;51.992;4.504;2022-12-07T07:51:29;4.64;85.35
71177;DHT22;58877;51.992;4.504;2022-12-07T07:53:55;4.96;84.39
71177;DHT22;58877;51.992;4.504;2022-12-07T07:56:21;5.18;83.16
71177;DHT22;58877;51.992;4.504;2022-12-07T07:58:46;5.26;83.07
71177;DHT22;58877;51.992;4.504;2022-12-07T08:01:12;5.36;82.62
71177;DHT22;58877;51.992;4.504;2022-12-07T08:03:39;5.56;82.38
71177;DHT22;58877;51.992;4.504;2022-12-07T08:06:04;5.61;82.04
71177;DHT22;58877;51.992;4.504;2022-12-07T08:08:31;5.66;81.24
71177;DHT22;58877;51.992;4.504;2022-12-07T08:10:57;5.68;81.36
71177;DHT22;58877;51.992;4.504;2022-12-07T08:13:28;5.87;80.85
71177;DHT22;58877;51.992;4.504;2022-12-07T08:15:54;6.07;80.08
71177;DHT22;58877;51.992;4.504;2022-12-07T08:18:20;6.11;79.26
71177;DHT22;58877;51.992;4.504;2022-12-07T08:20:45;6.15;79.22
71177;DHT22;58877;51.992;4.504;2022-12-07T08:23:11;6.11;79.40
71177;DHT22;58877;51.992;4.504;2022-12-07T08:25:37;6.05;79.68
71177;DHT22;58877;51.992;4.504;2022-12-07T08:28:03;5.98;79.85
71177;DHT22;58877;51.992;4.504;2022-12-07T08:30:29;5.78;80.40
71177;DHT22;58877;51.992;4.504;2022-12-07T08:32:55;5.67;80.96
71177;DHT22;58877;51.992;4.504;2022-12-07T08:35:22;5.67;81.29
71177;DHT22;58877;51.992;4.504;2022-12-07T08:37:48;5.67;81.01
71177;DHT22;58877;51.992;4.504;2022-12-07T08:40:14;5.61;80.78
71177;DHT22;58877;51.992;4.504;2022-12-07T08:42:48;5.64;80.93
71177;DHT22;58877;51.992;4.504;2022-12-07T08:45:16;5.57;80.49
71177;DHT22;58877;51.992;4.504;2022-12-07T08:47:50;5.56;80.69
71177;DHT22;58877;51.992;4.504;2022-12-07T08:50:17;5.56;80.91
71177;DHT22;58877;51.992;4.504;2022-12-07T08:52:43;5.63;80.81
71177;DHT22;58877;51.992;4.504;2022-12-07T08:55:11;5.84;81.33
71177;DHT22;58877;51.992;4.504;2022-12-07T08:57:39;5.91;81.18
71177;DHT22;58877;51.992;4.504;2022-12-07T09:00:06;5.93;81.07
71177;DHT22;58877;51.992;4.504;2022-12-07T09:02:32;5.90;81.06
71177;DHT22;58877;51.992;4.504;2022-12-07T09:04:58;5.90;81.12
71177;DHT22;58877;51.992;4.504;2022-12-07T09:07:25;6.08;81.31
71177;DHT22;58877;51.992;4.504;2022-12-07T09:09:50;6.31;81.22
71177;DHT22;58877;51.992;4.504;2022-12-07T09:12:16;6.46;80.99
71177;DHT22;58877;51.992;4.504;2022-12-07T09:14:41;6.68;81.04
71177;DHT22;58877;51.992;4.504;2022-12-07T09:17:09;6.48;81.55
71177;DHT22;58877;51.992;4.504;2022-12-07T09:19:35;6.33;81.89
71177;DHT22;58877;51.992;4.504;2022-12-07T09:22:02;6.25;82.24
71177;DHT22;58877;51.992;4.504;2022-12-07T09:24:27;6.20;81.75
71177;DHT22;58877;51.992;4.504;2022-12-07T09:26:53;6.38;82.14
71177;DHT22;58877;51.992;4.504;2022-12-07T09:29:19;6.42;81.64
71177;DHT22;58877;51.992;4.504;2022-12-07T09:31:44;6.52;81.54
71177;DHT22;58877;51.992;4.504;2022-12-07T09:34:10;6.56;81.09
71177;DHT22;58877;51.992;4.504;2022-12-07T09:36:41;6.53;80.95
71177;DHT22;58877;51.992;4.504;2022-12-07T09:39:08;6.55;80.83
71177;DHT22;58877;51.992;4.504;2022-12-07T09:41:43;6.69;81.07
71177;DHT22;58877;51.992;4.504;2022-12-07T09:44:13;6.79;80.46
71177;DHT22;58877;51.992;4.504;2022-12-07T09:46:42;6.85;80.46
71177;DHT22;58877;51.992;4.504;2022-12-07T09:49:13;6.95;80.16
71177;DHT22;58877;51.992;4.504;2022-12-07T09:51:40;6.93;80.24
71177;DHT22;58877;51.992;4.504;2022-12-07T09:54:06;6.96;80.40
71177;DHT22;58877;51.992;4.504;2022-12-07T09:56:33;7.07;80.47
71177;DHT22;58877;51.992;4.504;2022-12-07T09:59:01;7.28;80.45
71177;DHT22;58877;51.992;4.504;2022-12-07T10:01:31;7.48;80.41
71177;DHT22;58877;51.992;4.504;2022-12-07T10:04:16;7.74;79.77
71177;DHT22;58877;51.992;4.504;2022-12-07T10:06:43;7.91;78.85
71177;DHT22;58877;51.992;4.504;2022-12-07T10:09:16;7.89;79.15
71177;DHT22;58877;51.992;4.504;2022-12-07T10:12:01;7.92;79.57
71177;DHT22;58877;51.992;4.504;2022-12-07T10:14:33;7.86;78.85
71177;DHT22;58877;51.992;4.504;2022-12-07T10:17:38;7.86;78.39
71177;DHT22;58877;51.992;4.504;2022-12-07T10:22:34;7.92;78.62
71177;DHT22;58877;51.992;4.504;2022-12-07T10:25:08;8.02;78.35
71177;DHT22;58877;51.992;4.504;2022-12-07T10:27:34;8.07;77.91
71177;DHT22;58877;51.992;4.504;2022-12-07T10:30:07;8.15;77.49
71177;DHT22;58877;51.992;4.504;2022-12-07T10:32:43;8.19;77.65
71177;DHT22;58877;51.992;4.504;2022-12-07T10:35:30;8.15;78.09
71177;DHT22;58877;51.992;4.504;2022-12-07T10:37:59;8.19;78.19
71177;DHT22;58877;51.992;4.504;2022-12-07T10:43:09;8.43;78.29
71177;DHT22;58877;51.992;4.504;2022-12-07T10:51:45;8.49;77.21
71177;DHT22;58877;51.992;4.504;2022-12-07T10:57:30;8.63;76.48
71177;DHT22;58877;51.992;4.504;2022-12-07T11:02:59;8.80;75.63
71177;DHT22;58877;51.992;4.504;2022-12-07T11:05:39;8.84;75.79
71177;DHT22;58877;51.992;4.504;2022-12-07T11:08:38;8.87;75.35
71177;DHT22;58877;51.992;4.504;2022-12-07T11:14:18;8.70;74.65
71177;DHT22;58877;51.992;4.504;2022-12-07T11:16:56;8.73;74.78
71177;DHT22;58877;51.992;4.504;2022-12-07T11:38:31;8.47;73.16
71177;DHT22;58877;51.992;4.504;2022-12-07T11:41:04;8.29;73.83
71177;DHT22;58877;51.992;4.504;2022-12-07T11:46:46;6.10;83.27
71177;DHT22;58877;51.992;4.504;2022-12-07T11:49:31;5.77;85.48
71177;DHT22;58877;51.992;4.504;2022-12-07T11:54:54;5.71;86.32
71177;DHT22;58877;51.992;4.504;2022-12-07T11:57:32;5.83;85.72
71177;DHT22;58877;51.992;4.504;2022-12-07T12:00:08;6.00;84.71
71177;DHT22;58877;51.992;4.504;2022-12-07T12:02:58;6.18;83.48
71177;DHT22;58877;51.992;4.504;2022-12-07T12:05:25;6.33;83.46
71177;DHT22;58877;51.992;4.504;2022-12-07T12:10:35;6.76;83.00
71177;DHT22;58877;51.992;4.504;2022-12-07T12:13:15;6.90;82.48
71177;DHT22;58877;51.992;4.504;2022-12-07T12:18:50;7.20;81.99
71177;DHT22;58877;51.992;4.504;2022-12-07T12:21:28;7.28;81.17
71177;DHT22;58877;51.992;4.504;2022-12-07T12:24:01;7.35;80.95
71177;DHT22;58877;51.992;4.504;2022-12-07T12:26:33;7.55;81.39
71177;DHT22;58877;51.992;4.504;2022-12-07T12:29:06;7.71;79.58
71177;DHT22;58877;51.992;4.504;2022-12-07T12:42:55;8.19;77.33
71177;DHT22;58877;51.992;4.504;2022-12-07T12:53:42;8.21;77.18
71177;DHT22;58877;51.992;4.504;2022-12-07T13:00:44;8.66;76.20
71177;DHT22;58877;51.992;4.504;2022-12-07T13:03:29;8.97;75.76
71177;DHT22;58877;51.992;4.504;2022-12-07T13:08:48;8.56;76.57
71177;DHT22;58877;51.992;4.504;2022-12-07T13:13:51;8.12;73.28
71177;DHT22;58877;51.992;4.504;2022-12-07T13:18:42;7.32;72.86
71177;DHT22;58877;51.992;4.504;2022-12-07T13:27:00;6.96;75.44
71177;DHT22;58877;51.992;4.504;2022-12-07T13:29:26;6.96;75.31
71177;DHT22;58877;51.992;4.504;2022-12-07T13:31:56;6.99;75.81
71177;DHT22;58877;51.992;4.504;2022-12-07T13:34:37;7.13;75.86
71177;DHT22;58877;51.992;4.504;2022-12-07T13:37:27;7.46;74.54
71177;DHT22;58877;51.992;4.504;2022-12-07T13:39:59;7.38;74.50
71177;DHT22;58877;51.992;4.504;2022-12-07T13:42:32;7.48;74.94
71177;DHT22;58877;51.992;4.504;2022-12-07T13:45:24;7.47;74.03
71177;DHT22;58877;51.992;4.504;2022-12-07T13:48:41;7.51;73.10
71177;DHT22;58877;51.992;4.504;2022-12-07T13:51:25;7.65;74.13
71177;DHT22;58877;51.992;4.504;2022-12-07T13:53:56;7.64;72.18
71177;DHT22;58877;51.992;4.504;2022-12-07T13:56:34;7.79;72.25
71177;DHT22;58877;51.992;4.504;2022-12-07T13:59:01;7.91;71.94
71177;DHT22;58877;51.992;4.504;2022-12-07T14:01:33;8.03;72.98
71177;DHT22;58877;51.992;4.504;2022-12-07T14:04:37;8.02;72.57
71177;DHT22;58877;51.992;4.504;2022-12-07T14:07:25;7.96;72.78
71177;DHT22;58877;51.992;4.504;2022-12-07T14:09:59;7.88;72.95
71177;DHT22;58877;51.992;4.504;2022-12-07T14:12:26;7.84;73.33
71177;DHT22;58877;51.992;4.504;2022-12-07T14:14:56;7.81;73.13
71177;DHT22;58877;51.992;4.504;2022-12-07T14:17:30;7.74;73.62
71177;DHT22;58877;51.992;4.504;2022-12-07T14:20:01;7.67;73.93
71177;DHT22;58877;51.992;4.504;2022-12-07T14:22:35;7.60;74.25
71177;DHT22;58877;51.992;4.504;2022-12-07T14:27:51;7.68;74.09
71177;DHT22;58877;51.992;4.504;2022-12-07T14:30:19;7.81;74.01
71177;DHT22;58877;51.992;4.504;2022-12-07T14:32:53;8.02;74.04
71177;DHT22;58877;51.992;4.504;2022-12-07T14:35:20;8.03;73.99
71177;DHT22;58877;51.992;4.504;2022-12-07T14:37:48;8.12;74.25
71177;DHT22;58877;51.992;4.504;2022-12-07T14:40:17;8.22;72.89
71177;DHT22;58877;51.992;4.504;2022-12-07T14:42:46;8.21;73.46
71177;DHT22;58877;51.992;4.504;2022-12-07T14:45:16;8.22;73.65
71177;DHT22;58877;51.992;4.504;2022-12-07T14:47:43;8.23;73.60
71177;DHT22;58877;51.992;4.504;2022-12-07T14:50:11;8.26;73.26
71177;DHT22;58877;51.992;4.504;2022-12-07T14:52:39;8.26;73.68
71177;DHT22;58877;51.992;4.504;2022-12-07T14:57:54;8.45;74.46
71177;DHT22;58877;51.992;4.504;2022-12-07T15:00:22;8.64;72.85
71177;DHT22;58877;51.992;4.504;2022-12-07T15:02:49;8.43;73.55
71177;DHT22;58877;51.992;4.504;2022-12-07T15:05:16;8.02;76.11
71177;DHT22;58877;51.992;4.504;2022-12-07T15:07:42;7.74;76.70
71177;DHT22;58877;51.992;4.504;2022-12-07T15:10:38;7.58;77.63
71177;DHT22;58877;51.992;4.504;2022-12-07T15:13:06;7.54;78.38
71177;DHT22;58877;51.992;4.504;2022-12-07T15:15:52;7.51;78.15
71177;DHT22;58877;51.992;4.504;2022-12-07T15:18:19;7.43;79.41
71177;DHT22;58877;51.992;4.504;2022-12-07T15:20:46;7.41;80.01
71177;DHT22;58877;51.992;4.504;2022-12-07T15:23:12;7.37;79.75
71177;DHT22;58877;51.992;4.504;2022-12-07T15:25:46;7.37;79.94
71177;DHT22;58877;51.992;4.504;2022-12-07T15:28:13;7.37;79.91
71177;DHT22;58877;51.992;4.504;2022-12-07T15:30:41;7.24;80.24
71177;DHT22;58877;51.992;4.504;2022-12-07T15:33:12;7.23;80.53
71177;DHT22;58877;51.992;4.504;2022-12-07T15:35:39;7.23;80.76
71177;DHT22;58877;51.992;4.504;2022-12-07T15:38:07;7.28;80.45
71177;DHT22;58877;51.992;4.504;2022-12-07T15:40:33;7.26;80.61
71177;DHT22;58877;51.992;4.504;2022-12-07T15:43:01;7.30;80.01
71177;DHT22;58877;51.992;4.504;2022-12-07T15:45:27;7.23;80.07
71177;DHT22;58877;51.992;4.504;2022-12-07T15:47:52;6.92;80.45
71177;DHT22;58877;51.992;4.504;2022-12-07T15:50:21;6.68;81.57
71177;DHT22;58877;51.992;4.504;2022-12-07T15:52:47;6.73;81.70
71177;DHT22;58877;51.992;4.504;2022-12-07T15:55:13;6.77;81.78
71177;DHT22;58877;51.992;4.504;2022-12-07T15:57:39;6.76;81.38
71177;DHT22;58877;51.992;4.504;2022-12-07T16:00:07;6.80;81.03
71177;DHT22;58877;51.992;4.504;2022-12-07T16:02:36;6.73;79.85
71177;DHT22;58877;51.992;4.504;2022-12-07T16:05:02;6.82;79.85
71177;DHT22;58877;51.992;4.504;2022-12-07T16:07:28;6.79;78.40
71177;DHT22;58877;51.992;4.504;2022-12-07T16:09:54;6.80;78.06
71177;DHT22;58877;51.992;4.504;2022-12-07T16:12:20;6.92;77.37
71177;DHT22;58877;51.992;4.504;2022-12-07T16:14:45;6.92;75.70
71177;DHT22;58877;51.992;4.504;2022-12-07T16:17:14;7.00;75.94
71177;DHT22;58877;51.992;4.504;2022-12-07T16:19:40;6.96;75.16
71177;DHT22;58877;51.992;4.504;2022-12-07T16:22:06;6.95;74.14
71177;DHT22;58877;51.992;4.504;2022-12-07T16:24:32;6.89;73.96
71177;DHT22;58877;51.992;4.504;2022-12-07T16:26:58;6.83;74.04
71177;DHT22;58877;51.992;4.504;2022-12-07T16:29:24;6.82;74.23
71177;DHT22;58877;51.992;4.504;2022-12-07T16:31:51;6.85;74.35
71177;DHT22;58877;51.992;4.504;2022-12-07T16:34:18;6.80;74.85
71177;DHT22;58877;51.992;4.504;2022-12-07T16:36:46;6.79;74.09
71177;DHT22;58877;51.992;4.504;2022-12-07T16:39:12;6.77;74.05
71177;DHT22;58877;51.992;4.504;2022-12-07T16:41:38;6.79;74.23
71177;DHT22;58877;51.992;4.504;2022-12-07T16:44:07;6.83;74.55
71177;DHT22;58877;51.992;4.504;2022-12-07T16:46:34;6.82;74.66
71177;DHT22;58877;51.992;4.504;2022-12-07T16:49:05;6.76;74.77
71177;DHT22;58877;51.992;4.504;2022-12-07T16:51:32;6.82;75.03
71177;DHT22;58877;51.992;4.504;2022-12-07T16:54:02;6.83;75.61
71177;DHT22;58877;51.992;4.504;2022-12-07T16:56:29;6.83;76.01
71177;DHT22;58877;51.992;4.504;2022-12-07T16:58:57;6.73;76.69
71177;DHT22;58877;51.992;4.504;2022-12-07T17:01:23;6.68;77.05
71177;DHT22;58877;51.992;4.504;2022-12-07T17:03:51;6.77;77.33
71177;DHT22;58877;51.992;4.504;2022-12-07T17:06:22;6.77;77.52
71177;DHT22;58877;51.992;4.504;2022-12-07T17:08:54;6.82;77.69
71177;DHT22;58877;51.992;4.504;2022-12-07T17:11:29;6.76;77.54
71177;DHT22;58877;51.992;4.504;2022-12-07T17:14:07;6.71;77.86
71177;DHT22;58877;51.992;4.504;2022-12-07T17:16:52;6.65;78.24
71177;DHT22;58877;51.992;4.504;2022-12-07T17:19:18;6.75;78.09
71177;DHT22;58877;51.992;4.504;2022-12-07T17:21:47;6.69;78.16
71177;DHT22;58877;51.992;4.504;2022-12-07T17:24:15;6.76;78.17
71177;DHT22;58877;51.992;4.504;2022-12-07T17:26:43;6.59;77.76
71177;DHT22;58877;51.992;4.504;2022-12-07T17:29:11;6.68;77.53
71177;DHT22;58877;51.992;4.504;2022-12-07T17:31:38;6.73;77.59
71177;DHT22;58877;51.992;4.504;2022-12-07T17:34:10;6.72;78.03
71177;DHT22;58877;51.992;4.504;2022-12-07T17:36:37;6.71;77.92
71177;DHT22;58877;51.992;4.504;2022-12-07T17:39:07;6.63;77.99
71177;DHT22;58877;51.992;4.504;2022-12-07T17:41:33;6.72;78.29
71177;DHT22;58877;51.992;4.504;2022-12-07T17:44:18;6.73;78.33
71177;DHT22;58877;51.992;4.504;2022-12-07T17:46:48;6.85;78.22
71177;DHT22;58877;51.992;4.504;2022-12-07T17:49:16;6.87;78.00
71177;DHT22;58877;51.992;4.504;2022-12-07T17:51:42;6.82;77.55
71177;DHT22;58877;51.992;4.504;2022-12-07T17:54:26;6.80;77.84
71177;DHT22;58877;51.992;4.504;2022-12-07T17:56:53;6.83;77.35
71177;DHT22;58877;51.992;4.504;2022-12-07T17:59:19;6.86;76.88
71177;DHT22;58877;51.992;4.504;2022-12-07T18:01:45;6.82;76.83
71177;DHT22;58877;51.992;4.504;2022-12-07T18:04:11;6.77;77.27
71177;DHT22;58877;51.992;4.504;2022-12-07T18:06:37;6.75;77.13
71177;DHT22;58877;51.992;4.504;2022-12-07T18:09:03;6.69;77.43
71177;DHT22;58877;51.992;4.504;2022-12-07T18:11:30;6.76;77.53
71177;DHT22;58877;51.992;4.504;2022-12-07T18:13:56;6.75;77.44
71177;DHT22;58877;51.992;4.504;2022-12-07T18:16:24;6.65;77.89
71177;DHT22;58877;51.992;4.504;2022-12-07T18:18:52;6.59;78.12
71177;DHT22;58877;51.992;4.504;2022-12-07T18:21:21;6.49;77.85
71177;DHT22;58877;51.992;4.504;2022-12-07T18:23:50;6.50;77.84